EmailTwitter


Surface observations / France / LFBO (07630)

Regions: Quebec | Canada | USA | Europe | France | UK | Elsewhere
Station
Display
Info & Location for LFBO (07630) | Help decoding METAR

Weather Conditions observed on 2020/02/17 at 16:00 UTC at TOULOUSE/BLAGNAC, FR (LFBO)

Sky conditions: partly cloudy.

Temperature: 11.0 Celsius.

Dewpoint: 9.0 Celsius.

Relative Humidity: 87%

Windchill Factor: 9.

Winds: West at 17 km/h or 9 knots.

Mean Sea level Pressure: 102.90 kilopascals.

Horizontal visibility: 6.21 statute miles or 9.94 kilometers.

Height of the Ceiling: 1585 metres ( 5200 feet ).

Coded METAR:

LFBO 171600Z AUTO 26009KT 9999 FEW019 BKN052 BKN064 11/09 Q1029 TEMPO SCT030TCU=